Havilah, California
Current Conditions -  °F | °C
As of 5:55 AM on Monday 22 Dec 2014 (Local Time) from KTSP Reporting Station
Haze Haze  
Wind Chill: 42°   Ceiling: 1600
Heat Index: 46°   Visibility: 2mi
Dew Point: 46°   Wind: 9mph
Humidity: 100%   Direction: 310°NW
Pressure: 30.25"   Gusts: NA
Location:  35.3287°N, 118.419°W
Report Text: KTSP 221355Z AUTO 31008KT 2SM BR SCT003 OVC016 08/08 A3025 RMK AO2
Loading
Personal Weather Stations






























Interactive Weather Map New forecast layout! Learn more

10-Day Weather Forecast

Advertisements
Track Severe Weather on mobile